createdAt,value
2022-12-12T00:03:38.035Z,0.36
2022-12-12T00:08:39.337Z,0.35
2022-12-12T00:13:40.541Z,0.38
2022-12-12T00:18:41.670Z,0.42
2022-12-12T00:23:42.873Z,0.44
2022-12-12T00:28:44.582Z,0.46
2022-12-12T00:33:48.081Z,0.47
2022-12-12T00:38:49.311Z,0.47
2022-12-12T00:43:50.530Z,0.47
2022-12-12T00:48:51.654Z,0.49
2022-12-12T00:53:52.837Z,0.50
2022-12-12T00:58:53.978Z,0.51
2022-12-12T01:03:55.189Z,0.52
2022-12-12T01:08:56.381Z,0.51
2022-12-12T01:13:57.531Z,0.52
2022-12-12T01:18:58.658Z,0.56
2022-12-12T01:24:01.365Z,0.52
2022-12-12T01:29:02.541Z,0.55
2022-12-12T01:34:03.872Z,0.57
2022-12-12T01:39:05.741Z,0.57
2022-12-12T01:44:06.917Z,0.56
2022-12-12T01:49:08.104Z,0.56
2022-12-12T01:54:09.261Z,0.55
2022-12-12T01:59:10.489Z,0.55
2022-12-12T02:04:11.699Z,0.57
2022-12-12T02:09:12.915Z,0.57
2022-12-12T02:14:14.186Z,0.57
2022-12-12T02:19:15.382Z,0.58
2022-12-12T02:24:20.418Z,0.54
2022-12-12T02:29:25.728Z,0.52
2022-12-12T02:34:26.892Z,0.47
2022-12-12T02:39:28.061Z,0.43
2022-12-12T02:44:29.289Z,0.40
2022-12-12T02:49:30.493Z,0.36
2022-12-12T02:54:31.727Z,0.34
2022-12-12T02:59:32.924Z,0.35
2022-12-12T03:04:52.803Z,0.33
2022-12-12T03:09:53.935Z,0.25
2022-12-12T03:14:55.177Z,0.19
2022-12-12T03:19:56.306Z,0.11
2022-12-12T03:24:57.492Z,0.10
2022-12-12T03:29:58.660Z,0.07
2022-12-12T03:34:59.842Z,0.05
2022-12-12T03:40:01.017Z,0.02
2022-12-12T03:45:02.291Z,-0.01
2022-12-12T03:50:03.595Z,-0.08
2022-12-12T03:55:04.730Z,-0.10
2022-12-12T04:00:05.919Z,-0.06
2022-12-12T04:05:07.118Z,-0.09
2022-12-12T04:10:27.233Z,-0.11
2022-12-12T04:15:28.498Z,-0.13
2022-12-12T04:20:48.234Z,-0.12
2022-12-12T04:26:07.862Z,-0.18
2022-12-12T04:31:09.017Z,-0.18
2022-12-12T04:36:10.217Z,-0.21
2022-12-12T04:41:11.453Z,-0.24
2022-12-12T04:46:12.720Z,-0.27
2022-12-12T04:51:13.984Z,-0.29
2022-12-12T04:56:15.197Z,-0.30
2022-12-12T05:01:16.377Z,-0.38
2022-12-12T05:06:17.625Z,-0.39
2022-12-12T05:11:19.025Z,-0.43
2022-12-12T05:16:20.218Z,-0.49
2022-12-12T05:21:21.370Z,-0.51
2022-12-12T05:26:22.586Z,-0.57
2022-12-12T05:31:23.784Z,-0.59
2022-12-12T05:36:24.958Z,-0.61
2022-12-12T05:41:26.138Z,-0.61
2022-12-12T05:46:27.327Z,-0.65
2022-12-12T05:51:28.734Z,-0.67
2022-12-12T05:56:29.936Z,-0.69
2022-12-12T06:01:31.100Z,-0.68
2022-12-12T06:06:32.255Z,-0.68
2022-12-12T06:11:33.409Z,-0.68
2022-12-12T06:16:34.587Z,-0.69
2022-12-12T06:21:35.731Z,-0.70
2022-12-12T06:26:36.921Z,-0.72
2022-12-12T06:31:38.157Z,-0.76
2022-12-12T06:36:39.330Z,-0.79
2022-12-12T06:41:40.723Z,-0.80
2022-12-12T06:46:41.924Z,-0.83
2022-12-12T06:51:44.432Z,-0.87
2022-12-12T06:56:48.478Z,-0.87
2022-12-12T07:01:50.179Z,-0.87
2022-12-12T07:06:51.492Z,-0.85
2022-12-12T07:11:52.674Z,-0.87
2022-12-12T07:16:53.840Z,-0.90
2022-12-12T07:21:55.029Z,-0.95
2022-12-12T07:26:56.150Z,-1.04
2022-12-12T07:31:57.499Z,-1.11
2022-12-12T07:37:02.863Z,-1.13
2022-12-12T07:42:04.406Z,-1.17
2022-12-12T07:47:06.367Z,-1.19
2022-12-12T07:52:07.526Z,-1.29
2022-12-12T07:57:08.696Z,-1.41
2022-12-12T08:02:09.894Z,-1.48
2022-12-12T08:07:11.098Z,-1.56
2022-12-12T08:12:12.294Z,-1.58
2022-12-12T08:17:13.535Z,-1.61
2022-12-12T08:22:14.650Z,-1.60
2022-12-12T08:27:16.138Z,-1.61
2022-12-12T08:32:17.349Z,-1.56
2022-12-12T08:37:18.565Z,-1.53
2022-12-12T08:42:19.707Z,-1.48
2022-12-12T08:47:20.870Z,-1.40
2022-12-12T08:52:22.014Z,-1.28
2022-12-12T08:57:26.030Z,-1.12
2022-12-12T09:02:27.571Z,-0.94
2022-12-12T09:07:28.935Z,-0.89
2022-12-12T09:12:30.317Z,-0.75
2022-12-12T09:17:31.894Z,-0.64
2022-12-12T09:22:33.151Z,-0.55
2022-12-12T09:27:34.879Z,-0.77
2022-12-12T09:32:36.081Z,-0.43
2022-12-12T09:37:37.209Z,-0.23
2022-12-12T09:42:38.351Z,-0.17
2022-12-12T09:47:39.549Z,-0.15
2022-12-12T09:52:40.731Z,-0.08
2022-12-12T09:57:41.920Z,0.01
2022-12-12T10:02:44.115Z,0.20
2022-12-12T10:07:45.315Z,0.52
2022-12-12T10:12:46.537Z,1.04
2022-12-12T10:17:47.703Z,1.62
2022-12-12T10:22:48.878Z,2.19
2022-12-12T10:27:50.051Z,2.73
2022-12-12T10:32:51.221Z,2.82
2022-12-12T10:37:52.364Z,3.01
2022-12-12T10:42:53.947Z,2.99
2022-12-12T10:47:55.145Z,2.85
2022-12-12T10:52:56.345Z,2.86
2022-12-12T10:57:57.499Z,2.96
2022-12-12T11:03:00.375Z,3.04
2022-12-12T11:08:02.005Z,3.21
2022-12-12T11:13:03.238Z,3.42
2022-12-12T11:18:06.291Z,3.36
2022-12-12T11:23:07.810Z,3.46
2022-12-12T11:28:08.993Z,3.50
2022-12-12T11:33:10.144Z,3.39
2022-12-12T11:38:11.275Z,3.30
2022-12-12T11:43:12.413Z,3.06
2022-12-12T11:48:13.601Z,2.92
2022-12-12T11:53:14.780Z,2.77
2022-12-12T11:58:15.950Z,2.59
2022-12-12T12:03:17.234Z,2.50
2022-12-12T12:08:18.534Z,2.54
2022-12-12T12:13:19.710Z,2.50
2022-12-12T12:18:26.593Z,2.55
2022-12-12T12:23:29.251Z,2.72
2022-12-12T12:28:30.518Z,2.83
2022-12-12T12:33:31.745Z,2.79
2022-12-12T12:38:32.902Z,3.03
2022-12-12T12:43:34.192Z,3.25
2022-12-12T12:48:35.355Z,3.42
2022-12-12T12:53:36.559Z,3.59
2022-12-12T12:58:38.387Z,3.84
2022-12-12T13:03:39.536Z,3.83
2022-12-12T13:08:40.755Z,3.92
2022-12-12T13:13:41.934Z,3.84
2022-12-12T13:18:46.323Z,3.86
2022-12-12T13:23:47.640Z,3.77
2022-12-12T13:28:48.877Z,3.72
2022-12-12T13:33:50.011Z,3.65
2022-12-12T13:38:51.274Z,3.45
2022-12-12T13:43:52.438Z,3.56
2022-12-12T13:48:53.639Z,3.38
2022-12-12T13:53:54.784Z,3.09
2022-12-12T13:58:55.930Z,2.95
2022-12-12T14:03:57.338Z,2.92
2022-12-12T14:08:58.622Z,2.89
2022-12-12T14:13:59.826Z,2.69
2022-12-12T14:19:01.930Z,2.49
2022-12-12T14:24:03.092Z,2.52
2022-12-12T14:29:04.353Z,2.22
2022-12-12T14:34:05.517Z,1.82
2022-12-12T14:39:06.887Z,1.57
2022-12-12T14:44:35.612Z,1.40
2022-12-12T14:49:29.262Z,1.29
2022-12-12T14:54:30.462Z,1.16
2022-12-12T14:59:31.649Z,1.04
2022-12-12T15:04:32.808Z,0.95
2022-12-12T15:09:33.966Z,0.78
2022-12-12T15:14:35.451Z,0.64
2022-12-12T15:19:36.615Z,0.52
2022-12-12T15:24:37.768Z,0.42
2022-12-12T15:29:38.923Z,0.30
2022-12-12T15:34:40.300Z,0.19
2022-12-12T15:39:41.509Z,0.09
2022-12-12T15:44:42.641Z,0.01
2022-12-12T15:49:43.856Z,-0.10
2022-12-12T15:54:45.037Z,-0.17
2022-12-12T15:59:46.175Z,-0.27
2022-12-12T16:04:47.574Z,-0.30
2022-12-12T16:09:48.731Z,-0.37
2022-12-12T16:14:49.906Z,-0.43
2022-12-12T16:19:51.055Z,-0.46
2022-12-12T16:24:52.269Z,-0.52
2022-12-12T16:29:53.402Z,-0.61
2022-12-12T16:34:54.847Z,-0.67
2022-12-12T16:39:56.036Z,-0.70
2022-12-12T16:44:57.192Z,-0.79
2022-12-12T16:49:58.320Z,-0.86
2022-12-12T16:54:59.479Z,-0.87
2022-12-12T17:00:00.628Z,-0.87
2022-12-12T17:05:01.792Z,-0.92
2022-12-12T17:10:03.005Z,-1.05
2022-12-12T17:15:04.174Z,-1.10
2022-12-12T17:20:05.319Z,-1.09
2022-12-12T17:25:06.552Z,-1.11
2022-12-12T17:30:07.690Z,-1.14
2022-12-12T17:35:08.822Z,-1.16
2022-12-12T17:40:10.861Z,-1.19
2022-12-12T17:45:12.150Z,-1.19
2022-12-12T17:50:13.635Z,-1.23
2022-12-12T17:55:55.057Z,-1.28
2022-12-12T18:00:36.541Z,-1.31
2022-12-12T18:05:37.683Z,-1.44
2022-12-12T18:10:38.931Z,-1.55
2022-12-12T18:15:42.199Z,-1.69
2022-12-12T18:20:43.980Z,-1.78
2022-12-12T18:25:45.175Z,-1.84
2022-12-12T18:30:46.348Z,-1.87
2022-12-12T18:35:47.550Z,-1.82
2022-12-12T18:40:48.714Z,-1.77
2022-12-12T18:45:49.942Z,-1.79
2022-12-12T18:50:51.138Z,-1.82
2022-12-12T18:55:52.326Z,-1.96
2022-12-12T19:00:53.490Z,-2.02
2022-12-12T19:05:54.656Z,-2.00
2022-12-12T19:10:55.784Z,-1.90
2022-12-12T19:15:57.937Z,-1.85
2022-12-12T19:20:59.108Z,-1.99
2022-12-12T19:26:00.243Z,-2.11
2022-12-12T19:31:01.485Z,-2.15
2022-12-12T19:36:02.643Z,-2.21
2022-12-12T19:41:04.301Z,-2.27
2022-12-12T19:46:06.052Z,-2.30
2022-12-12T19:51:07.350Z,-2.36
2022-12-12T19:56:08.621Z,-2.39
2022-12-12T20:01:09.845Z,-2.47
2022-12-12T20:06:11.176Z,-2.50
2022-12-12T20:11:12.373Z,-2.54
2022-12-12T20:16:13.623Z,-2.62
2022-12-12T20:21:36.198Z,-2.62
2022-12-12T20:26:36.016Z,-2.55
2022-12-12T20:31:37.300Z,-2.50
2022-12-12T20:36:38.561Z,-2.52
2022-12-12T20:41:39.792Z,-2.54
2022-12-12T20:46:41.233Z,-2.55
2022-12-12T20:51:58.784Z,-2.51
2022-12-12T20:57:01.055Z,-2.52
2022-12-12T21:02:02.305Z,-2.56
2022-12-12T21:07:03.514Z,-2.56
2022-12-12T21:12:04.638Z,-2.57
2022-12-12T21:17:05.864Z,-2.61
2022-12-12T21:22:08.236Z,-2.69
2022-12-12T21:27:09.414Z,-2.72
2022-12-12T21:32:10.765Z,-2.70
2022-12-12T21:37:11.896Z,-2.72
2022-12-12T21:42:13.100Z,-2.80
2022-12-12T21:47:14.265Z,-2.83
2022-12-12T21:52:15.390Z,-2.87
2022-12-12T21:57:18.592Z,-2.91
2022-12-12T22:02:23.155Z,-3.00
2022-12-12T22:07:24.333Z,-3.05
2022-12-12T22:12:25.798Z,-3.08
2022-12-12T22:17:26.929Z,-3.08
2022-12-12T22:22:28.982Z,-3.13
2022-12-12T22:27:30.218Z,-3.27
2022-12-12T22:32:31.354Z,-3.33
2022-12-12T22:37:32.522Z,-3.34
2022-12-12T22:42:33.699Z,-3.37
2022-12-12T22:47:34.850Z,-3.41
2022-12-12T22:52:36.050Z,-3.41
2022-12-12T22:57:37.287Z,-3.33
2022-12-12T23:02:38.464Z,-3.34
2022-12-12T23:07:39.620Z,-3.34
2022-12-12T23:12:40.972Z,-3.42
2022-12-12T23:17:42.122Z,-3.47
2022-12-12T23:22:46.316Z,-3.42
2022-12-12T23:27:47.443Z,-3.43
2022-12-12T23:32:48.632Z,-3.46
2022-12-12T23:37:49.784Z,-3.46
2022-12-12T23:42:51.103Z,-3.39
2022-12-12T23:47:52.276Z,-3.45
2022-12-12T23:52:53.458Z,-3.54
2022-12-12T23:57:54.579Z,-3.52
